Terminal Aerodrome Forecast
Issued by NWS

Home | Current Version | Previous Version | Text Only | Print | Product List | Glossary On
Versions: 1 2 3 4 5 6 7 8 9 10 11 12 13 14 15 16
000
FTUS46 KMTR 270309 AAA
TAFSJC
TAF AMD
KSJC 270309Z 2703/2724 32012KT P6SM FEW035
     FM270600 VRB04KT P6SM BKN030
     FM271000 18005KT P6SM OVC025
     FM271700 VRB03KT P6SM SCT030
     FM272200 30012KT P6SM FEW035=

USA.gov is the U.S. government's official web portal to all federal, state and local government web resources and services.